La Joya, New Mexico
Current Conditions -  °F | °C
As of 8:55 PM on Thursday 18 Dec 2014 (Local Time) from KE80 Reporting Station
Clear Clear  
Wind Chill: -4°   Ceiling: Unl
Heat Index: -1°   Visibility: 10mi
Dew Point: -1°   Wind: 7mph
Humidity: 100%   Direction: 270°W
Pressure: 30.14"   Gusts: NA
Location:  34.35°N, 106.84°W
Report Text: KE80 190355Z AUTO 27006KT 10SM CLR M01/M01 A3014 RMK AO2 T10071007
Loading
Personal Weather Stations






























Interactive Weather Map New forecast layout! Learn more

10-Day Weather Forecast

Advertisements
Track Severe Weather on mobile